Watts Bar Observed Data For Previous 48 Hours

Caption
Day and Hour Reservoir Elevation (behind dam)* Tailwater Elevation (below dam)* Average Hourly Discharge*
9/21/2017 2 AM EDT 740.66 681.57 10,182
9/21/2017 3 AM EDT 740.65 681.78 10,164
9/21/2017 4 AM EDT 740.57 681.86 10,161
9/21/2017 5 AM EDT 740.51 681.69 10,175
9/21/2017 6 AM EDT 740.58 681.55 10,129
9/21/2017 7 AM EDT 740.61 681.46 10,124
9/21/2017 8 AM EDT 740.62 681.43 10,123
9/21/2017 9 AM EDT 740.63 681.50 10,131
9/21/2017 10 AM EDT 740.59 681.61 10,165
9/21/2017 11 AM EDT 740.59 681.61 10,186
9/21/2017 12 PM EDT 740.58 681.64 10,325
9/21/2017 1 PM EDT 740.62 682.06 19,378
9/21/2017 2 PM EDT 740.67 681.98 20,086
9/21/2017 3 PM EDT 740.68 681.96 20,147
9/21/2017 4 PM EDT 740.71 681.98 20,235
9/21/2017 5 PM EDT 740.69 682.22 24,974
9/21/2017 6 PM EDT 740.67 682.27 25,141
9/21/2017 7 PM EDT 740.70 682.28 25,086
9/21/2017 8 PM EDT 740.73 682.30 25,154
9/21/2017 9 PM EDT 740.74 682.30 25,067
9/21/2017 10 PM EDT 740.78 682.03 20,293
9/21/2017 11 PM EDT 740.82 681.95 20,146
9/22/2017 12 AM EDT 740.86 681.42 10,559
9/22/2017 1 AM EDT 740.85 681.51 10,126
9/22/2017 2 AM EDT 740.80 681.59 10,145
9/22/2017 3 AM EDT 740.75 681.70 10,141
9/22/2017 4 AM EDT 740.67 681.81 10,150
9/22/2017 5 AM EDT 740.63 681.77 10,127
9/22/2017 6 AM EDT 740.68 681.73 10,095
9/22/2017 7 AM EDT 740.71 681.65 10,123
9/22/2017 8 AM EDT 740.76 681.63 10,115
9/22/2017 9 AM EDT 740.80 681.63 10,159
9/22/2017 10 AM EDT 740.76 681.74 10,143
9/22/2017 11 AM EDT 740.70 681.73 10,316
9/22/2017 12 PM EDT 740.63 682.26 19,755
9/22/2017 1 PM EDT 740.58 682.54 24,977
9/22/2017 2 PM EDT 740.60 682.48 25,091
9/22/2017 3 PM EDT 740.55 683.23 27,407
9/22/2017 4 PM EDT 740.58 683.63 46,708
9/22/2017 5 PM EDT 740.63 683.71 46,843
9/22/2017 6 PM EDT 740.56 683.73 46,818
9/22/2017 7 PM EDT 740.48 683.73 46,959
9/22/2017 8 PM EDT 740.51 682.40 25,993
9/22/2017 9 PM EDT 740.48 682.27 25,094
9/22/2017 10 PM EDT 740.45 682.17 25,075
9/22/2017 11 PM EDT 740.45 681.91 20,323
9/23/2017 12 AM EDT 740.40 682.01 20,119
9/23/2017 1 AM EDT 740.41 682.06 20,100
9/23/2017 2 AM EDT 740.50 681.61 10,614
9/23/2017 3 AM EDT 740.55 681.72 10,130

Elevations are in feet above sea level. Discharges are in cubic feet per second and are reported at the end of the hour.